Time;durP1;ratioP1;P1;durP2;ratioP2;P2;SDS_P1;SDS_P2;PMS_P1;PMS_P2;Temp;Humidity;BMP_temperature;BMP_pressure;BME280_temperature;BME280_humidity;BME280_pressure;Samples;Min_cycle;Max_cycle;Signal;HPM_P1;HPM_P2
2022/10/27 00:00:09;;;;;;;;;;;;;;;-143.57;76.71;50996.84;5061268;28;19948;-72
2022/10/27 00:02:40;;;;;;;;;;;;;;;-143.57;76.32;51030.66;5061045;28;20322;-72
2022/10/27 00:05:07;;;;;;;;;;;;;;;-143.57;77.28;50984.94;5056916;28;19927;-72
2022/10/27 00:07:37;;;;;;;;;;;;;;;-143.57;77.59;51008.78;5062967;28;20400;-72
2022/10/27 00:10:04;;;;;;;;;;;;;;;-143.57;77.48;50957.09;5060123;28;20046;-72
2022/10/27 00:12:32;;;;;;;;;;;;;;;-143.57;77.49;51008.78;5063859;28;19932;-72
2022/10/27 00:14:58;;;;;;;;;;;;;;;-143.57;77.45;51020.72;5056703;28;20066;-72
2022/10/27 00:17:25;;;;;;;;;;;;;;;-143.57;77.44;51014.75;5059808;28;20055;-71
2022/10/27 00:19:51;;;;;;;;;;;;;;;-143.57;77.78;50992.88;5060712;28;20321;-72
2022/10/27 00:22:18;;;;;;;;;;;;;;;-143.57;76.79;50980.97;5065768;28;19936;-72
2022/10/27 00:24:45;;;;;;;;;;;;;;;-143.57;77.55;50967.03;5062929;28;19967;-71
2022/10/27 00:27:11;;;;;;;;;;;;;;;-143.57;77.73;50998.84;5060115;28;20036;-71
2022/10/27 00:29:39;;;;;;;;;;;;;;;-143.57;77.46;50988.91;5060181;28;19924;-71
2022/10/27 00:32:06;;;;;;;;;;;;;;;-143.57;77.01;50992.88;5062440;28;19925;-71
2022/10/27 00:34:32;;;;;;;;;;;;;;;-143.57;76.76;51008.78;5063794;28;19932;-71
2022/10/27 00:36:59;;;;;;;;;;;;;;;-143.57;76.79;51020.72;5059208;28;19994;-72
2022/10/27 00:39:25;;;;;;;;;;;;;;;-143.57;76.90;51036.63;5063926;28;20019;-72
2022/10/27 00:41:52;;;;;;;;;;;;;;;-143.57;76.02;50976.97;5094245;27;20138;-72
2022/10/27 00:44:25;;;;;;;;;;;;;;;-143.57;75.98;50975.00;5063771;28;20333;-72
2022/10/27 00:46:51;;;;;;;;;;;;;;;-143.57;75.66;50978.97;5058551;28;19928;-72
2022/10/27 00:49:21;;;;;;;;;;;;;;;-143.57;75.21;50992.88;5067356;28;19963;-72
2022/10/27 00:51:49;;;;;;;;;;;;;;;-143.57;75.55;50963.06;5062128;28;19956;-72
2022/10/27 00:54:17;;;;;;;;;;;;;;;-143.57;75.91;51006.78;5063855;28;19925;-72
2022/10/27 00:56:45;;;;;;;;;;;;;;;-143.57;76.46;50998.84;5061827;28;19932;-71
2022/10/27 00:59:12;;;;;;;;;;;;;;;-143.57;76.52;50988.91;5067408;28;19971;-72
2022/10/27 01:01:40;;;;;;;;;;;;;;;-143.57;76.53;51008.78;5060106;28;19955;-72
2022/10/27 01:04:07;;;;;;;;;;;;;;;-143.57;77.43;51016.72;5061744;28;19928;-71
2022/10/27 01:06:34;;;;;;;;;;;;;;;-143.57;78.66;50984.94;5063543;28;19938;-71
2022/10/27 01:09:02;;;;;;;;;;;;;;;-143.57;78.74;51002.81;5061980;28;19925;-71
2022/10/27 01:11:30;;;;;;;;;;;;;;;-143.57;78.11;51016.72;5062704;28;20014;-71
2022/10/27 01:13:57;;;;;;;;;;;;;;;-143.57;77.84;51026.69;5061084;28;19929;-72
2022/10/27 01:16:32;;;;;;;;;;;;;;;-143.57;77.41;50992.88;5061722;28;19936;-72
2022/10/27 01:19:02;;;;;;;;;;;;;;;-143.57;77.00;51008.78;5088597;27;20023;-72
2022/10/27 01:21:44;;;;;;;;;;;;;;;-143.57;77.09;51024.69;5063596;28;19932;-72
2022/10/27 01:24:29;;;;;;;;;;;;;;;-143.57;76.98;51004.81;5065730;28;19932;-72
2022/10/27 01:27:01;;;;;;;;;;;;;;;-143.57;77.03;50992.88;5062636;28;20654;-71
2022/10/27 01:29:47;;;;;;;;;;;;;;;-143.57;77.21;50980.97;5058996;28;20411;-72
2022/10/27 01:32:24;;;;;;;;;;;;;;;-143.57;76.98;51008.78;5065189;28;19925;-72
2022/10/27 01:34:56;;;;;;;;;;;;;;;-143.57;77.34;51018.72;5070710;28;20035;-72
2022/10/27 01:37:27;;;;;;;;;;;;;;;-143.57;77.56;50945.19;5072338;28;19956;-71
2022/10/27 01:40:01;;;;;;;;;;;;;;;-143.57;77.18;50973.00;5063827;28;19955;-71
2022/10/27 01:42:35;;;;;;;;;;;;;;;-143.57;78.03;50996.84;5071954;28;20491;-72
2022/10/27 01:45:02;;;;;;;;;;;;;;;-143.57;79.07;51000.84;5067428;28;19924;-71
2022/10/27 01:47:30;;;;;;;;;;;;;;;-143.57;76.32;50996.84;5071314;28;20004;-72
2022/10/27 01:49:56;;;;;;;;;;;;;;;-143.57;75.86;51020.72;5068294;28;21205;-72
2022/10/27 01:52:38;;;;;;;;;;;;;;;-143.57;77.55;51032.63;5068410;28;19932;-72
2022/10/27 01:55:06;;;;;;;;;;;;;;;-143.57;80.57;51000.84;5060976;28;20019;-72
2022/10/27 01:57:36;;;;;;;;;;;;;;;-143.57;80.32;50988.91;5062254;28;19936;-72
2022/10/27 02:00:04;;;;;;;;;;;;;;;-143.57;82.80;51020.72;5068531;27;19982;-72
2022/10/27 02:02:46;;;;;;;;;;;;;;;-143.57;84.05;50988.91;5062405;28;19928;-71
2022/10/27 02:05:20;;;;;;;;;;;;;;;-143.57;85.59;51004.81;5061114;28;21172;-71
2022/10/27 02:07:54;;;;;;;;;;;;;;;-143.57;84.61;51014.75;5070414;28;19929;-72
2022/10/27 02:10:24;;;;;;;;;;;;;;;-143.57;83.21;51028.66;5067949;28;19997;-72
2022/10/27 02:12:51;;;;;;;;;;;;;;;-143.57;82.97;50996.84;5068348;28;20647;-72
2022/10/27 02:15:27;;;;;;;;;;;;;;;-143.57;83.00;51028.66;5072659;28;19924;-72
2022/10/27 02:17:56;;;;;;;;;;;;;;;-143.57;82.36;50992.88;5066413;28;19959;-73
2022/10/27 02:20:24;;;;;;;;;;;;;;;-143.57;82.59;50965.06;5102405;27;19986;-73
2022/10/27 02:22:53;;;;;;;;;;;;;;;-143.57;82.56;51028.66;5061985;28;19932;-72
2022/10/27 02:25:22;;;;;;;;;;;;;;;-143.57;82.34;51000.84;5065058;28;19927;-72
2022/10/27 02:27:55;;;;;;;;;;;;;;;-143.57;83.17;51006.78;5061459;28;19986;-72
2022/10/27 02:30:22;;;;;;;;;;;;;;;-143.57;82.91;50984.94;5066211;28;19936;-71
2022/10/27 02:32:49;;;;;;;;;;;;;;;-143.57;81.96;50975.00;5063149;28;19928;-72
2022/10/27 02:35:16;;;;;;;;;;;;;;;-143.57;80.90;51008.78;5064784;28;19935;-72
2022/10/27 02:37:44;;;;;;;;;;;;;;;-143.57;80.72;50996.84;5060025;28;19928;-72
2022/10/27 02:40:11;;;;;;;;;;;;;;;-143.57;80.67;51008.78;5060619;28;19981;-72
2022/10/27 02:42:37;;;;;;;;;;;;;;;-143.57;80.86;51008.78;5058243;28;19924;-71
2022/10/27 02:45:04;;;;;;;;;;;;;;;-143.57;80.91;51014.75;5064229;28;19951;-71
2022/10/27 02:47:31;;;;;;;;;;;;;;;-143.57;81.56;51012.75;5064564;28;19933;-71
2022/10/27 02:49:58;;;;;;;;;;;;;;;-143.57;81.99;51012.75;5060061;28;20618;-72
2022/10/27 02:52:24;;;;;;;;;;;;;;;-143.57;82.17;51016.72;5069435;28;20027;-71
2022/10/27 02:54:51;;;;;;;;;;;;;;;-143.57;81.97;50988.91;5065339;28;19989;-71
2022/10/27 02:57:18;;;;;;;;;;;;;;;-143.57;82.38;51000.84;5063618;28;20676;-71
2022/10/27 02:59:45;;;;;;;;;;;;;;;-143.57;82.15;51010.78;5058100;28;20019;-72
2022/10/27 03:02:18;;;;;;;;;;;;;;;-143.57;82.28;51008.78;5068063;28;20393;-71
2022/10/27 03:04:45;;;;;;;;;;;;;;;-143.57;81.53;50996.84;5062036;28;19932;-71
2022/10/27 03:07:11;;;;;;;;;;;;;;;-143.57;82.58;51008.78;5062083;28;19932;-72
2022/10/27 03:09:38;;;;;;;;;;;;;;;-143.57;83.29;51024.69;5064210;28;19928;-71
2022/10/27 03:12:05;;;;;;;;;;;;;;;-143.57;82.95;51006.78;5064614;28;19981;-72
2022/10/27 03:14:31;;;;;;;;;;;;;;;-143.57;83.28;51028.66;5065400;28;19928;-72
2022/10/27 03:16:58;;;;;;;;;;;;;;;-143.57;83.05;51012.75;5068575;28;19928;-72
2022/10/27 03:19:25;;;;;;;;;;;;;;;-143.57;83.30;50992.88;5068660;28;19975;-72
2022/10/27 03:21:51;;;;;;;;;;;;;;;-143.57;82.99;51012.75;5065000;28;19924;-71
2022/10/27 03:24:18;;;;;;;;;;;;;;;-143.57;83.00;51024.69;5066535;28;19928;-72
2022/10/27 03:26:45;;;;;;;;;;;;;;;-143.57;83.06;51008.78;5060245;28;20004;-71
2022/10/27 03:29:11;;;;;;;;;;;;;;;-143.57;83.02;51028.66;5065723;28;19920;-72
2022/10/27 03:31:38;;;;;;;;;;;;;;;-143.57;83.49;50988.91;5064857;28;20017;-72
2022/10/27 03:34:04;;;;;;;;;;;;;;;-143.57;84.73;51008.78;5066213;28;19932;-71
2022/10/27 03:36:31;;;;;;;;;;;;;;;-143.57;84.76;50982.94;5061820;28;19932;-71
2022/10/27 03:38:58;;;;;;;;;;;;;;;-143.57;84.91;51036.63;5068805;28;19932;-72
2022/10/27 03:41:24;;;;;;;;;;;;;;;-143.57;85.29;50996.84;5058861;28;20667;-72
2022/10/27 03:43:51;;;;;;;;;;;;;;;-143.57;85.78;51004.81;5062763;28;19982;-72
2022/10/27 03:46:18;;;;;;;;;;;;;;;-143.57;85.67;51020.72;5065549;28;19936;-71
2022/10/27 03:48:44;;;;;;;;;;;;;;;-143.57;85.15;50988.91;5059125;28;19939;-72
2022/10/27 03:51:11;;;;;;;;;;;;;;;-143.57;84.80;51048.53;5066054;28;19959;-72
2022/10/27 03:53:37;;;;;;;;;;;;;;;-143.57;84.73;51008.78;5061035;28;19928;-72
2022/10/27 03:56:04;;;;;;;;;;;;;;;-143.57;85.54;51018.72;5062295;28;19928;-71
2022/10/27 03:58:31;;;;;;;;;;;;;;;-143.57;85.73;51018.72;5059041;28;19932;-72
2022/10/27 04:01:01;;;;;;;;;;;;;;;-143.57;85.75;51008.78;5065341;28;19986;-71
2022/10/27 04:03:28;;;;;;;;;;;;;;;-143.57;85.76;50988.91;5063425;28;19920;-72
2022/10/27 04:05:55;;;;;;;;;;;;;;;-143.57;85.95;50988.91;5064391;28;19935;-72
2022/10/27 04:08:21;;;;;;;;;;;;;;;-143.57;86.28;51024.69;5060335;28;20038;-72
2022/10/27 04:10:48;;;;;;;;;;;;;;;-143.57;86.71;50986.91;5063504;28;19981;-72
2022/10/27 04:13:15;;;;;;;;;;;;;;;-143.57;88.29;50996.84;5061267;28;19928;-72
2022/10/27 04:15:41;;;;;;;;;;;;;;;-143.57;89.05;51016.72;5070158;28;20037;-72
2022/10/27 04:18:08;;;;;;;;;;;;;;;-143.57;88.70;51016.72;5062523;28;19925;-72
2022/10/27 04:20:35;;;;;;;;;;;;;;;-143.57;88.83;51000.84;5059407;28;19930;-72
2022/10/27 04:23:03;;;;;;;;;;;;;;;-143.57;88.86;51018.72;5065864;28;19955;-72
2022/10/27 04:25:30;;;;;;;;;;;;;;;-143.57;89.10;50992.88;5090227;27;19929;-71
2022/10/27 04:27:59;;;;;;;;;;;;;;;-143.57;89.41;51020.72;5061794;28;20694;-71
2022/10/27 04:30:26;;;;;;;;;;;;;;;-143.57;88.84;51024.69;5063208;28;19964;-72
2022/10/27 04:32:52;;;;;;;;;;;;;;;-143.57;88.59;51024.69;5065352;28;20443;-71
2022/10/27 04:35:19;;;;;;;;;;;;;;;-143.57;89.03;51004.81;5060776;28;19935;-71
2022/10/27 04:37:46;;;;;;;;;;;;;;;-143.57;90.04;51024.69;5063869;28;19940;-72
2022/10/27 04:40:12;;;;;;;;;;;;;;;-143.57;90.63;51006.78;5057851;28;20620;-72
2022/10/27 04:42:48;;;;;;;;;;;;;;;-143.57;91.27;50996.84;5062036;28;20011;-72
2022/10/27 04:45:15;;;;;;;;;;;;;;;-143.57;91.71;51012.75;5064443;28;19982;-72
2022/10/27 04:47:42;;;;;;;;;;;;;;;-143.57;93.33;51100.22;5063608;28;20005;-72
2022/10/27 04:50:09;;;;;;;;;;;;;;;-143.57;94.10;51012.75;5067894;28;19924;-73
2022/10/27 04:52:35;;;;;;;;;;;;;;;-143.57;94.97;51024.69;5060432;28;19932;-72
2022/10/27 04:55:08;;;;;;;;;;;;;;;-143.57;95.33;51056.50;5068649;28;19935;-71
2022/10/27 04:57:34;;;;;;;;;;;;;;;-143.57;95.59;51028.66;5060194;28;20030;-71
2022/10/27 05:00:01;;;;;;;;;;;;;;;-143.57;95.51;50988.91;5060422;28;20011;-72
2022/10/27 05:02:28;;;;;;;;;;;;;;;-143.57;97.25;51012.75;5060843;28;20036;-72
2022/10/27 05:04:58;;;;;;;;;;;;;;;-143.57;98.73;51036.63;5065379;28;19967;-72
2022/10/27 05:07:25;;;;;;;;;;;;;;;-143.57;98.89;51040.59;5057129;28;19996;-73
2022/10/27 05:09:52;;;;;;;;;;;;;;;-143.57;98.68;51004.81;5062219;28;20007;-71
2022/10/27 05:12:18;;;;;;;;;;;;;;;-143.57;98.61;51016.72;5058078;28;19935;-72
2022/10/27 05:14:45;;;;;;;;;;;;;;;-143.57;98.68;51030.66;5039149;28;19972;-73
2022/10/27 05:17:12;;;;;;;;;;;;;;;-143.57;100.00;51004.81;5068542;28;19981;-72
2022/10/27 05:19:44;;;;;;;;;;;;;;;-143.57;100.00;50990.91;5064906;28;19936;-72
2022/10/27 05:22:11;;;;;;;;;;;;;;;-143.57;99.40;51012.75;5058198;28;20591;-72
2022/10/27 05:26:19;;;;;;;;;;;;;;;-143.57;100.00;51008.78;5075686;28;19927;-62
2022/10/27 05:28:46;;;;;;;;;;;;;;;-143.57;100.00;51004.81;5072611;28;19981;-63
2022/10/27 05:31:13;;;;;;;;;;;;;;;-143.57;100.00;51024.69;5073773;28;19968;-63
2022/10/27 05:33:40;;;;;;;;;;;;;;;-143.57;100.00;51014.75;5069679;28;20037;-65
2022/10/27 05:36:07;;;;;;;;;;;;;;;-143.57;100.00;51032.63;5074618;28;20017;-64
2022/10/27 05:38:33;;;;;;;;;;;;;;;-143.57;100.00;50994.88;5074433;28;19928;-64
2022/10/27 05:41:00;;;;;;;;;;;;;;;-143.57;100.00;51034.63;5071667;28;20306;-64
2022/10/27 05:43:27;;;;;;;;;;;;;;;-143.57;100.00;51034.63;5072995;28;19932;-63
2022/10/27 05:46:00;;;;;;;;;;;;;;;-143.57;100.00;51028.66;5074763;28;19928;-64
2022/10/27 05:48:26;;;;;;;;;;;;;;;-143.57;100.00;51040.59;5075693;28;20039;-63
2022/10/27 05:50:53;;;;;;;;;;;;;;;-143.57;100.00;51022.69;5076178;28;20018;-63
2022/10/27 05:53:20;;;;;;;;;;;;;;;-143.57;100.00;51044.56;5072678;28;20364;-64
2022/10/27 05:55:47;;;;;;;;;;;;;;;-143.57;100.00;51020.72;5075457;28;20397;-64
2022/10/27 05:58:14;;;;;;;;;;;;;;;-143.57;100.00;51038.59;5074030;28;19955;-64
2022/10/27 06:00:40;;;;;;;;;;;;;;;-143.57;100.00;51012.75;5072385;28;19932;-64
2022/10/27 06:03:15;;;;;;;;;;;;;;;-143.57;100.00;51016.72;5069847;28;19997;-65
2022/10/27 06:05:41;;;;;;;;;;;;;;;-143.57;100.00;51028.66;5069096;28;20039;-65
2022/10/27 06:08:08;;;;;;;;;;;;;;;-143.57;100.00;51032.63;5070876;27;21035;-65
2022/10/27 06:10:34;;;;;;;;;;;;;;;-143.57;100.00;50988.91;5069303;28;20025;-64
2022/10/27 06:13:05;;;;;;;;;;;;;;;-143.57;100.00;51024.69;5071673;27;20267;-65
2022/10/27 06:15:32;;;;;;;;;;;;;;;-143.57;100.00;51010.78;5073676;28;20017;-64
2022/10/27 06:17:59;;;;;;;;;;;;;;;-143.57;100.00;51026.69;5073609;27;19958;-65
2022/10/27 06:20:26;;;;;;;;;;;;;;;-143.57;100.00;51024.69;5074916;28;20367;-64
2022/10/27 06:22:53;;;;;;;;;;;;;;;-143.57;100.00;51018.72;5074024;27;19935;-64
2022/10/27 06:25:19;;;;;;;;;;;;;;;-143.57;99.85;51060.47;5074270;28;19981;-65
2022/10/27 06:27:46;;;;;;;;;;;;;;;-143.57;98.89;50992.88;5074554;27;20026;-64
2022/10/27 06:30:13;;;;;;;;;;;;;;;-143.57;97.93;51008.78;5074859;28;20005;-64
2022/10/27 06:32:40;;;;;;;;;;;;;;;-143.57;91.36;51032.63;5074653;27;19931;-65
2022/10/27 06:35:07;;;;;;;;;;;;;;;-143.57;89.97;51028.66;5069680;28;19967;-64
2022/10/27 06:37:38;;;;;;;;;;;;;;;-143.57;88.64;51042.56;5058745;27;19979;-65
2022/10/27 06:40:06;;;;;;;;;;;;;;;-143.57;88.62;50992.88;5058634;28;20149;-65
2022/10/27 06:42:36;;;;;;;;;;;;;;;-143.57;87.12;51020.72;5060674;28;20556;-65
2022/10/27 06:45:16;;;;;;;;;;;;;;;-143.57;87.87;51052.50;5057188;28;20003;-65
2022/10/27 06:47:43;;;;;;;;;;;;;;;-143.57;87.85;51012.75;5060765;28;19928;-65
2022/10/27 06:50:10;;;;;;;;;;;;;;;-143.57;88.63;51020.72;5060578;28;19964;-65
2022/10/27 06:52:37;;;;;;;;;;;;;;;-143.57;89.21;51008.78;5059229;28;19982;-65
2022/10/27 06:55:04;;;;;;;;;;;;;;;-143.57;89.38;51008.78;5059267;27;20851;-64
2022/10/27 06:57:38;;;;;;;;;;;;;;;-143.57;90.82;51028.66;5060690;28;19929;-64
2022/10/27 07:00:05;;;;;;;;;;;;;;;-143.57;86.67;51052.50;5058087;28;20421;-65
2022/10/27 07:02:32;;;;;;;;;;;;;;;-143.57;85.81;51044.56;5062229;28;19924;-64
2022/10/27 07:04:58;;;;;;;;;;;;;;;-143.57;85.41;51040.59;5060499;28;19962;-63
2022/10/27 07:07:25;;;;;;;;;;;;;;;-143.57;85.02;51036.63;5062061;28;20373;-64
2022/10/27 07:09:52;;;;;;;;;;;;;;;-143.57;82.91;51016.72;5060582;28;19928;-64
2022/10/27 07:12:18;;;;;;;;;;;;;;;-143.57;82.99;51028.66;5061374;28;19929;-64
2022/10/27 07:14:45;;;;;;;;;;;;;;;-143.57;82.43;51024.69;5062104;28;20043;-64
2022/10/27 07:17:11;;;;;;;;;;;;;;;-143.57;82.63;50992.88;5061055;28;20500;-64
2022/10/27 07:19:38;;;;;;;;;;;;;;;-143.57;83.49;51020.72;5060924;28;19935;-64
2022/10/27 07:22:04;;;;;;;;;;;;;;;-143.57;82.24;51024.69;5059376;28;19935;-64
2022/10/27 07:24:31;;;;;;;;;;;;;;;-143.57;82.55;51008.78;5058232;28;20456;-64
2022/10/27 07:26:58;;;;;;;;;;;;;;;-143.57;83.54;51020.72;5058911;28;19925;-64
2022/10/27 07:29:24;;;;;;;;;;;;;;;-143.57;83.38;51022.69;5059702;28;19944;-64
2022/10/27 07:31:51;;;;;;;;;;;;;;;-143.57;82.16;51016.72;5058501;28;20675;-64
2022/10/27 07:34:17;;;;;;;;;;;;;;;-143.57;81.74;51024.69;5059261;28;20019;-64
2022/10/27 07:36:45;;;;;;;;;;;;;;;-143.57;81.68;51008.78;5059579;28;19978;-64
2022/10/27 07:39:11;;;;;;;;;;;;;;;-143.57;79.30;51020.72;5060158;28;20019;-64
2022/10/27 07:41:38;;;;;;;;;;;;;;;-143.57;79.75;51020.72;5054673;28;19975;-64
2022/10/27 07:44:05;;;;;;;;;;;;;;;-143.57;78.80;51044.56;5058867;28;20026;-64
2022/10/27 07:46:31;;;;;;;;;;;;;;;-143.57;78.78;51044.56;5060447;28;19932;-63
2022/10/27 07:48:58;;;;;;;;;;;;;;;-143.57;80.38;51008.78;5059340;28;19952;-65
2022/10/27 07:51:24;;;;;;;;;;;;;;;-143.57;79.35;51016.72;5060156;28;19968;-64
2022/10/27 07:53:51;;;;;;;;;;;;;;;-143.57;78.85;51004.81;5060013;28;19929;-64
2022/10/27 07:56:23;;;;;;;;;;;;;;;-143.57;78.99;51040.59;5058787;28;20401;-64
2022/10/27 07:58:50;;;;;;;;;;;;;;;-143.57;79.03;50996.84;5059900;28;19933;-64
2022/10/27 08:01:16;;;;;;;;;;;;;;;-143.57;78.96;51034.63;5060656;28;20447;-65
2022/10/27 08:03:43;;;;;;;;;;;;;;;-143.57;77.99;51020.72;5059924;28;20404;-64
2022/10/27 08:06:15;;;;;;;;;;;;;;;-143.57;77.43;51014.75;5058916;28;20395;-64
2022/10/27 08:08:42;;;;;;;;;;;;;;;-143.57;76.68;51040.59;5059139;28;19932;-64
2022/10/27 08:11:08;;;;;;;;;;;;;;;-143.57;75.27;51032.63;5058689;28;19955;-64
2022/10/27 08:13:35;;;;;;;;;;;;;;;-143.57;76.22;51036.63;5057009;28;20401;-64
2022/10/27 08:16:01;;;;;;;;;;;;;;;-143.57;75.90;51066.44;5082981;28;19933;-64
2022/10/27 08:18:28;;;;;;;;;;;;;;;-143.57;73.30;51030.66;5059904;28;20448;-63
2022/10/27 08:20:55;;;;;;;;;;;;;;;-143.57;72.75;51032.63;5057417;28;20029;-64
2022/10/27 08:23:23;;;;;;;;;;;;;;;-143.57;73.36;51048.53;5060855;28;20418;-64
2022/10/27 08:25:50;;;;;;;;;;;;;;;-143.57;72.82;51016.72;5059519;28;20050;-64
2022/10/27 08:28:17;;;;;;;;;;;;;;;-143.57;72.34;51008.78;5059313;28;20379;-64
2022/10/27 08:30:43;;;;;;;;;;;;;;;-143.57;71.12;51020.72;5057924;28;19925;-64
2022/10/27 08:33:19;;;;;;;;;;;;;;;-143.57;70.66;51060.47;5055336;28;19928;-64
2022/10/27 08:35:45;;;;;;;;;;;;;;;-143.57;70.67;51060.47;5058481;28;19932;-64
2022/10/27 08:38:13;;;;;;;;;;;;;;;-143.57;69.27;51046.56;5059199;28;20298;-65
2022/10/27 08:40:49;;;;;;;;;;;;;;;-143.57;69.84;51040.59;5055914;28;20413;-63
2022/10/27 08:43:26;;;;;;;;;;;;;;;-143.57;69.37;51020.72;5055157;28;19932;-64
2022/10/27 08:45:57;;;;;;;;;;;;;;;-143.57;67.87;51044.56;5059810;28;19929;-63
2022/10/27 08:48:25;;;;;;;;;;;;;;;-143.57;67.66;51024.69;5056947;28;19928;-65
2022/10/27 08:50:52;;;;;;;;;;;;;;;-143.57;67.67;50976.97;5055462;28;20032;-64
2022/10/27 08:53:24;;;;;;;;;;;;;;;-143.57;67.06;51004.81;5054521;28;20388;-65
2022/10/27 08:55:52;;;;;;;;;;;;;;;-143.57;67.23;51044.56;5057598;28;20058;-65
2022/10/27 08:58:30;;;;;;;;;;;;;;;-143.57;64.57;51040.59;5059262;28;20446;-64
2022/10/27 09:01:09;;;;;;;;;;;;;;;-143.57;65.05;51026.69;5054415;28;20029;-65
2022/10/27 09:03:48;;;;;;;;;;;;;;;-143.57;64.22;51036.63;5056092;28;19935;-63
2022/10/27 09:06:20;;;;;;;;;;;;;;;-143.57;64.08;51032.63;5059189;28;20687;-64
2022/10/27 09:08:50;;;;;;;;;;;;;;;-143.57;63.54;51008.78;5057598;28;19928;-65
2022/10/27 09:11:17;;;;;;;;;;;;;;;-143.57;62.92;51022.69;5059539;28;20071;-64
2022/10/27 09:13:49;;;;;;;;;;;;;;;-143.57;62.39;51036.63;5056332;28;19989;-64
2022/10/27 09:16:21;;;;;;;;;;;;;;;-143.57;61.17;51012.75;5056348;28;19959;-65
2022/10/27 09:18:51;;;;;;;;;;;;;;;-143.57;60.27;51056.50;5057583;28;19986;-66
2022/10/27 09:21:19;;;;;;;;;;;;;;;-143.57;60.24;51032.63;5057825;28;19985;-64
2022/10/27 09:23:50;;;;;;;;;;;;;;;-143.57;60.36;51032.63;5057578;28;19964;-64
2022/10/27 09:26:19;;;;;;;;;;;;;;;-143.57;58.02;51020.72;5038095;28;20364;-65
2022/10/27 09:28:50;;;;;;;;;;;;;;;-143.57;58.14;51020.72;5037674;28;19972;-64
2022/10/27 09:31:23;;;;;;;;;;;;;;;-143.57;57.42;51060.47;5037066;28;20055;-64
2022/10/27 09:34:02;;;;;;;;;;;;;;;-143.57;56.44;51042.56;5038174;28;19928;-65
2022/10/27 09:36:29;;;;;;;;;;;;;;;-143.57;55.48;51032.63;5039386;28;20019;-64
2022/10/27 09:38:56;;;;;;;;;;;;;;;-143.57;54.29;51032.63;5038781;28;20063;-64
2022/10/27 09:41:22;;;;;;;;;;;;;;;-143.57;54.24;51008.78;5036011;28;19929;-65
2022/10/27 09:43:51;;;;;;;;;;;;;;;-143.57;54.38;51020.72;5037912;28;20059;-64
2022/10/27 09:46:26;;;;;;;;;;;;;;;-143.57;53.81;51020.72;5039387;28;19936;-64
2022/10/27 09:49:04;;;;;;;;;;;;;;;-143.57;53.08;51018.72;5037506;28;19929;-64
2022/10/27 09:51:48;;;;;;;;;;;;;;;-143.57;52.51;51032.63;5037115;28;19951;-64
2022/10/27 09:54:29;;;;;;;;;;;;;;;-143.57;52.56;51024.69;5038539;28;20410;-64
2022/10/27 09:57:18;;;;;;;;;;;;;;;-143.57;52.51;51020.72;5038966;28;19932;-64
2022/10/27 09:59:57;;;;;;;;;;;;;;;-143.57;50.76;51028.66;5038363;28;20011;-64
2022/10/27 10:02:25;;;;;;;;;;;;;;;-143.57;49.21;51024.69;5038913;28;20183;-64
2022/10/27 10:04:52;;;;;;;;;;;;;;;-143.57;49.58;51050.53;5037358;28;19940;-64
2022/10/27 10:07:29;;;;;;;;;;;;;;;-143.57;49.44;51008.78;5038918;28;19929;-65
2022/10/27 10:10:04;;;;;;;;;;;;;;;-143.57;48.00;51018.72;5036970;28;21632;-65
2022/10/27 10:12:31;;;;;;;;;;;;;;;-143.57;47.10;51028.66;5041370;28;19928;-64
2022/10/27 10:15:14;;;;;;;;;;;;;;;-143.57;46.38;51040.59;5042551;28;19978;-63
2022/10/27 10:17:42;;;;;;;;;;;;;;;-143.57;45.45;50992.88;5042004;28;20024;-66
2022/10/27 10:20:27;;;;;;;;;;;;;;;-143.57;44.71;51024.69;5042390;28;19955;-64
2022/10/27 10:22:54;;;;;;;;;;;;;;;-143.57;44.37;51036.63;5040994;28;19936;-63
2022/10/27 10:25:32;;;;;;;;;;;;;;;-143.57;42.19;51034.63;5055414;28;19928;-64
2022/10/27 10:28:03;;;;;;;;;;;;;;;-143.57;41.92;51028.66;5062213;28;20390;-64
2022/10/27 10:30:38;;;;;;;;;;;;;;;-143.57;41.39;51020.72;5060542;28;19985;-63
2022/10/27 10:33:05;;;;;;;;;;;;;;;-143.57;41.27;50973.00;5060919;28;20027;-64
2022/10/27 10:35:44;;;;;;;;;;;;;;;-143.57;40.53;51004.81;5062524;28;19924;-63
2022/10/27 10:38:23;;;;;;;;;;;;;;;-143.57;38.57;51022.69;5062031;28;19936;-64
2022/10/27 10:41:20;;;;;;;;;;;;;;;-143.57;37.91;50996.84;5061555;28;20371;-62
2022/10/27 10:44:06;;;;;;;;;;;;;;;-143.57;37.61;51032.63;5049969;28;19935;-63
2022/10/27 10:46:34;;;;;;;;;;;;;;;-143.57;37.70;50988.91;5060692;28;19985;-63
2022/10/27 10:49:01;;;;;;;;;;;;;;;-143.57;38.24;50980.97;5061045;28;19930;-63
2022/10/27 10:51:27;;;;;;;;;;;;;;;-143.57;37.33;50984.94;5061040;28;20212;-63
2022/10/27 10:54:00;;;;;;;;;;;;;;;-143.57;38.11;51028.66;5061827;28;20028;-65
2022/10/27 10:56:29;;;;;;;;;;;;;;;-143.57;37.06;51004.81;5059719;28;20409;-62
2022/10/27 10:59:01;;;;;;;;;;;;;;;-143.57;35.44;51028.66;5059979;28;19925;-62
2022/10/27 11:01:43;;;;;;;;;;;;;;;-143.57;35.01;51024.69;5060861;28;20001;-62
2022/10/27 11:04:14;;;;;;;;;;;;;;;-143.57;34.02;51008.78;5056021;28;19932;-62
2022/10/27 11:07:10;;;;;;;;;;;;;;;-143.57;34.56;50998.84;5057936;28;20460;-62
2022/10/27 11:09:52;;;;;;;;;;;;;;;-143.57;34.54;51028.66;5060499;28;20059;-63
2022/10/27 11:12:39;;;;;;;;;;;;;;;-143.57;33.50;50996.84;5059395;28;19968;-63
2022/10/27 11:15:17;;;;;;;;;;;;;;;-143.57;33.54;51008.78;5052876;28;19982;-63
2022/10/27 11:17:44;;;;;;;;;;;;;;;-143.57;32.53;51020.72;5060568;28;19928;-63
2022/10/27 11:20:20;;;;;;;;;;;;;;;-143.57;32.18;51008.78;5060364;28;20401;-62
2022/10/27 11:22:48;;;;;;;;;;;;;;;-143.57;31.03;51028.66;5057550;28;20434;-62
2022/10/27 11:27:30;;;;;;;;;;;;;;;-143.57;31.69;51008.78;5011715;27;2050205;-63
2022/10/27 11:30:19;;;;;;;;;;;;;;;-143.57;31.82;50996.84;5084549;28;19928;-62
2022/10/27 11:33:04;;;;;;;;;;;;;;;-143.57;30.92;50984.94;5085556;28;19990;-63
2022/10/27 11:35:45;;;;;;;;;;;;;;;-143.57;30.07;51020.72;5085438;28;20605;-63
2022/10/27 11:38:44;;;;;;;;;;;;;;;-143.57;30.69;51012.75;5083871;28;19928;-63
2022/10/27 11:41:16;;;;;;;;;;;;;;;-143.57;30.45;50978.97;5024896;28;20391;-62
2022/10/27 11:43:46;;;;;;;;;;;;;;;-143.57;30.16;50982.94;5088642;28;20047;-63
2022/10/27 11:46:28;;;;;;;;;;;;;;;-143.57;29.69;50980.97;5077970;28;19928;-63
2022/10/27 11:49:09;;;;;;;;;;;;;;;-143.57;29.92;50976.97;5079888;28;19932;-63
2022/10/27 11:51:55;;;;;;;;;;;;;;;-143.57;29.05;50992.88;5081703;28;19940;-63
2022/10/27 11:54:22;;;;;;;;;;;;;;;-143.57;29.37;50961.06;5085305;28;19981;-63
2022/10/27 11:56:55;;;;;;;;;;;;;;;-143.57;28.52;50996.84;5061244;28;19932;-61
2022/10/27 11:59:25;;;;;;;;;;;;;;;-143.57;28.85;50986.91;5083487;28;19967;-61
2022/10/27 12:02:10;;;;;;;;;;;;;;;-143.57;28.74;50984.94;5084892;28;19932;-60
2022/10/27 12:04:39;;;;;;;;;;;;;;;-143.57;28.45;51008.78;5081682;28;20490;-61
2022/10/27 12:07:06;;;;;;;;;;;;;;;-143.57;28.25;51004.81;5081917;28;21130;-62
2022/10/27 12:09:38;;;;;;;;;;;;;;;-143.57;28.57;50969.03;5081103;28;19978;-61
2022/10/27 12:12:15;;;;;;;;;;;;;;;-143.57;28.31;50988.91;5083086;28;19924;-62
2022/10/27 12:14:59;;;;;;;;;;;;;;;-143.57;27.76;50965.06;5079900;28;19923;-61
2022/10/27 12:17:38;;;;;;;;;;;;;;;-143.57;27.42;50990.91;5084841;28;19928;-62
2022/10/27 12:20:07;;;;;;;;;;;;;;;-143.57;26.97;51008.78;5083332;28;19955;-62
2022/10/27 12:22:36;;;;;;;;;;;;;;;-143.57;26.63;50986.91;5078584;28;20378;-62
2022/10/27 12:25:06;;;;;;;;;;;;;;;-143.57;25.53;50978.97;5082425;28;19936;-62
2022/10/27 12:27:34;;;;;;;;;;;;;;;-143.57;24.81;50973.00;5083912;28;20407;-62
2022/10/27 12:30:06;;;;;;;;;;;;;;;-143.57;23.86;50957.09;5084746;28;19924;-62
2022/10/27 12:32:35;;;;;;;;;;;;;;;-143.57;23.22;50947.16;5080691;28;20454;-62
2022/10/27 12:35:11;;;;;;;;;;;;;;;-143.57;22.60;50933.25;5081739;28;19939;-61
2022/10/27 12:37:44;;;;;;;;;;;;;;;-143.57;21.94;50957.09;5076492;28;19932;-62
2022/10/27 12:40:29;;;;;;;;;;;;;;;-143.57;20.92;50895.47;5075212;28;19936;-62
2022/10/27 12:43:01;;;;;;;;;;;;;;;-143.57;20.44;50901.44;5070991;28;20010;-62